createdAt,value
2019-02-21T00:02:57.516Z,14.93
2019-02-21T00:08:02.951Z,15.53
2019-02-21T00:13:08.434Z,16.27
2019-02-21T00:18:13.846Z,19.87
2019-02-21T00:23:19.248Z,15.80
2019-02-21T00:28:24.747Z,17.90
2019-02-21T00:33:30.151Z,17.80
2019-02-21T00:38:35.746Z,15.10
2019-02-21T00:43:41.194Z,17.30
2019-02-21T00:48:46.597Z,15.73
2019-02-21T00:53:52.059Z,18.03
2019-02-21T00:58:57.520Z,16.50
2019-02-21T01:04:02.882Z,15.20
2019-02-21T01:09:08.253Z,17.07
2019-02-21T01:14:13.721Z,18.80
2019-02-21T01:19:19.151Z,22.77
2019-02-21T01:24:24.563Z,18.83
2019-02-21T01:29:29.981Z,19.47
2019-02-21T01:34:35.434Z,18.20
2019-02-21T01:39:40.953Z,21.60
2019-02-21T01:44:46.383Z,19.10
2019-02-21T01:49:52.020Z,21.30
2019-02-21T01:54:57.448Z,19.30
2019-02-21T02:00:03.155Z,16.80
2019-02-21T02:05:08.985Z,17.00
2019-02-21T02:10:14.382Z,16.87
2019-02-21T02:15:19.892Z,15.20
2019-02-21T02:20:25.319Z,17.97
2019-02-21T02:25:30.696Z,15.17
2019-02-21T02:30:36.058Z,17.33
2019-02-21T02:35:41.460Z,16.20
2019-02-21T02:40:46.915Z,18.33
2019-02-21T02:45:52.451Z,15.27
2019-02-21T02:50:57.836Z,17.60
2019-02-21T02:56:03.340Z,20.40
2019-02-21T03:01:08.771Z,17.03
2019-02-21T03:06:14.148Z,20.53
2019-02-21T03:11:19.607Z,17.17
2019-02-21T03:16:25.073Z,18.00
2019-02-21T03:21:30.555Z,19.97
2019-02-21T03:26:35.954Z,19.60
2019-02-21T03:31:53.343Z,19.60
2019-02-21T03:36:48.740Z,23.27
2019-02-21T03:41:54.109Z,17.50
2019-02-21T03:46:59.480Z,17.83
2019-02-21T03:52:04.862Z,19.20
2019-02-21T03:57:10.322Z,21.80
2019-02-21T04:02:15.708Z,19.33
2019-02-21T04:07:21.921Z,20.83
2019-02-21T04:12:27.550Z,19.03
2019-02-21T04:17:32.969Z,21.13
2019-02-21T04:22:38.380Z,22.77
2019-02-21T04:27:43.822Z,21.03
2019-02-21T04:32:49.220Z,21.63
2019-02-21T04:37:54.636Z,18.73
2019-02-21T04:43:00.223Z,21.80
2019-02-21T04:48:05.596Z,18.80
2019-02-21T04:53:11.005Z,19.70
2019-02-21T04:58:16.395Z,17.43
2019-02-21T05:03:21.805Z,20.50
2019-02-21T05:08:27.199Z,21.00
2019-02-21T05:13:33.783Z,18.47
2019-02-21T05:18:39.338Z,17.73
2019-02-21T05:23:44.723Z,18.03
2019-02-21T05:28:50.163Z,21.10
2019-02-21T05:34:14.448Z,21.23
2019-02-21T05:39:50.791Z,22.17
2019-02-21T05:45:27.277Z,20.70
2019-02-21T05:50:41.581Z,23.30
2019-02-21T05:56:08.910Z,24.87
2019-02-21T06:01:31.981Z,19.60
2019-02-21T06:06:54.818Z,26.63
2019-02-21T06:12:17.828Z,21.97
2019-02-21T06:17:40.759Z,25.13
2019-02-21T06:23:17.082Z,23.57
2019-02-21T06:28:29.878Z,22.27
2019-02-21T06:33:35.505Z,24.73
2019-02-21T06:38:41.071Z,26.17
2019-02-21T06:43:46.513Z,27.47
2019-02-21T06:48:51.891Z,26.87
2019-02-21T06:53:57.370Z,25.00
2019-02-21T06:59:02.952Z,25.10
2019-02-21T07:04:08.480Z,29.17
2019-02-21T07:09:14.048Z,27.77
2019-02-21T07:14:19.488Z,26.23
2019-02-21T07:19:24.985Z,32.23
2019-02-21T07:24:30.751Z,23.77
2019-02-21T07:29:38.741Z,29.23
2019-02-21T07:34:43.307Z,29.70
2019-02-21T07:39:50.850Z,32.37
2019-02-21T07:44:55.938Z,26.00
2019-02-21T07:50:01.295Z,28.50
2019-02-21T07:55:07.007Z,23.07
2019-02-21T08:00:12.703Z,25.27
2019-02-21T08:05:18.081Z,24.73
2019-02-21T08:10:33.170Z,19.93
2019-02-21T08:15:30.603Z,21.63
2019-02-21T08:20:40.907Z,27.70
2019-02-21T08:25:43.023Z,22.60
2019-02-21T08:30:48.486Z,25.47
2019-02-21T08:35:54.355Z,21.17
2019-02-21T08:40:59.796Z,21.57
2019-02-21T08:46:05.338Z,25.53
2019-02-21T08:51:10.727Z,19.70
2019-02-21T08:56:16.347Z,24.27
2019-02-21T09:01:21.851Z,22.87
2019-02-21T09:06:27.238Z,23.97
2019-02-21T09:11:35.485Z,24.23
2019-02-21T09:16:41.079Z,25.30
2019-02-21T09:21:46.471Z,28.43
2019-02-21T09:26:52.020Z,24.07
2019-02-21T09:31:57.445Z,28.27
2019-02-21T09:37:05.353Z,26.23
2019-02-21T09:42:09.927Z,26.37
2019-02-21T09:47:15.310Z,22.53
2019-02-21T09:52:20.713Z,25.27
2019-02-21T09:57:26.275Z,29.27
2019-02-21T10:02:31.646Z,32.97
2019-02-21T10:07:37.270Z,30.87
2019-02-21T10:12:42.785Z,30.07
2019-02-21T10:17:50.756Z,30.77
2019-02-21T10:22:55.307Z,29.80
2019-02-21T10:28:00.721Z,29.73
2019-02-21T10:33:06.279Z,31.80
2019-02-21T10:38:11.739Z,32.93
2019-02-21T10:43:17.134Z,31.03
2019-02-21T10:48:22.523Z,29.00
2019-02-21T10:53:27.936Z,30.00
2019-02-21T10:58:33.437Z,29.43
2019-02-21T11:03:38.856Z,32.03
2019-02-21T11:08:44.271Z,31.20
2019-02-21T11:13:49.688Z,38.53
2019-02-21T11:18:55.133Z,32.37
2019-02-21T11:24:00.596Z,28.93
2019-02-21T11:29:06.257Z,30.43
2019-02-21T11:34:11.759Z,32.23
2019-02-21T11:39:17.424Z,32.40
2019-02-21T11:44:22.823Z,27.17
2019-02-21T11:49:28.321Z,29.73
2019-02-21T11:54:33.836Z,28.17
2019-02-21T11:59:39.305Z,29.20
2019-02-21T12:04:46.497Z,29.37
2019-02-21T12:09:51.916Z,34.73
2019-02-21T12:14:57.288Z,29.47
2019-02-21T12:20:02.925Z,28.13
2019-02-21T12:25:10.887Z,25.30
2019-02-21T12:30:18.014Z,27.63
2019-02-21T12:35:29.664Z,27.67
2019-02-21T12:40:30.802Z,27.80
2019-02-21T12:45:36.221Z,24.63
2019-02-21T12:50:44.510Z,28.03
2019-02-21T12:55:48.815Z,22.77
2019-02-21T13:00:54.431Z,22.87
2019-02-21T13:05:59.879Z,24.60
2019-02-21T13:11:05.355Z,25.33
2019-02-21T13:16:10.841Z,29.70
2019-02-21T13:21:16.289Z,24.47
2019-02-21T13:26:21.894Z,26.23
2019-02-21T13:31:27.260Z,28.00
2019-02-21T13:36:34.002Z,28.43
2019-02-21T13:41:39.820Z,30.57
2019-02-21T13:46:45.224Z,26.73
2019-02-21T13:51:50.779Z,28.70
2019-02-21T13:56:56.166Z,23.80
2019-02-21T14:02:01.768Z,25.10
2019-02-21T14:07:07.235Z,25.33
2019-02-21T14:12:12.733Z,22.17
2019-02-21T14:17:18.216Z,23.93
2019-02-21T14:22:23.690Z,25.67
2019-02-21T14:27:31.745Z,27.60
2019-02-21T14:32:36.399Z,28.27
2019-02-21T14:37:41.902Z,26.63
2019-02-21T14:42:47.285Z,24.37
2019-02-21T14:47:52.750Z,27.13
2019-02-21T14:52:58.562Z,25.57
2019-02-21T14:58:04.044Z,25.20
2019-02-21T15:03:21.662Z,23.93
2019-02-21T15:08:22.267Z,26.27
2019-02-21T15:13:27.920Z,24.90
2019-02-21T15:18:33.425Z,24.37
2019-02-21T15:23:38.860Z,24.70
2019-02-21T15:28:44.346Z,23.00
2019-02-21T15:33:49.880Z,21.90
2019-02-21T15:38:55.282Z,26.23
2019-02-21T15:44:00.680Z,21.97
2019-02-21T15:49:06.114Z,24.20
2019-02-21T15:54:12.514Z,21.00
2019-02-21T15:59:18.071Z,28.70
2019-02-21T16:04:23.684Z,26.67
2019-02-21T16:09:30.448Z,29.43
2019-02-21T16:14:37.707Z,28.10
2019-02-21T16:19:43.295Z,25.10
2019-02-21T16:24:48.783Z,32.43
2019-02-21T16:29:54.318Z,28.60
2019-02-21T16:34:59.925Z,26.27
2019-02-21T16:40:08.781Z,35.63
2019-02-21T16:45:15.002Z,26.03
2019-02-21T16:50:29.210Z,30.50
2019-02-21T16:55:27.681Z,32.90
2019-02-21T17:00:47.358Z,26.90
2019-02-21T18:19:40.787Z,23.27
2019-02-21T18:24:46.250Z,28.00
2019-02-21T18:29:51.700Z,27.43
2019-02-21T18:34:57.308Z,22.57
2019-02-21T18:40:02.733Z,20.30
2019-02-21T18:45:08.894Z,29.53
2019-02-21T18:50:15.868Z,20.73
2019-02-21T18:55:21.394Z,25.23
2019-02-21T19:00:27.177Z,24.33
2019-02-21T19:05:35.972Z,22.23
2019-02-21T19:24:37.058Z,19.73
2019-02-21T19:29:42.680Z,25.33
2019-02-21T19:34:48.313Z,30.73
2019-02-21T19:39:54.247Z,23.70
2019-02-21T19:45:00.000Z,28.53
2019-02-21T19:50:05.925Z,21.43
2019-02-21T19:55:11.421Z,26.90
2019-02-21T20:00:17.718Z,34.80
2019-02-21T20:05:23.284Z,29.27
2019-02-21T20:10:28.796Z,34.83
2019-02-21T20:15:34.269Z,30.63
2019-02-21T20:20:39.736Z,31.10
2019-02-21T20:25:45.167Z,27.80
2019-02-21T20:30:50.769Z,31.90
2019-02-21T20:35:56.327Z,31.90
2019-02-21T20:41:01.726Z,33.70
2019-02-21T20:46:07.150Z,36.47
2019-02-21T20:51:12.714Z,33.30
2019-02-21T20:56:18.276Z,29.37
2019-02-21T21:01:24.132Z,31.37
2019-02-21T21:06:29.659Z,38.80
2019-02-21T21:11:35.522Z,40.10
2019-02-21T21:16:41.012Z,39.23
2019-02-21T21:21:46.754Z,38.03
2019-02-21T21:26:52.401Z,36.10
2019-02-21T21:31:58.105Z,35.13
2019-02-21T21:37:03.739Z,38.47
2019-02-21T21:42:09.174Z,36.50
2019-02-21T21:47:14.735Z,40.07
2019-02-21T21:52:20.598Z,38.87
2019-02-21T21:57:26.154Z,36.97
2019-02-21T22:02:31.674Z,35.20
2019-02-21T22:07:37.070Z,35.67
2019-02-21T22:12:42.845Z,47.27
2019-02-21T22:17:48.335Z,40.23
2019-02-21T22:22:53.769Z,41.53
2019-02-21T22:27:59.165Z,39.27
2019-02-21T22:33:04.647Z,40.93
2019-02-21T22:38:10.445Z,36.47
2019-02-21T22:43:16.401Z,46.50
2019-02-21T22:48:22.026Z,41.80
2019-02-21T22:53:27.808Z,40.20
2019-02-21T22:58:33.385Z,41.87
2019-02-21T23:03:50.331Z,43.50
2019-02-21T23:08:56.261Z,42.77
2019-02-21T23:14:01.788Z,40.93
2019-02-21T23:19:07.188Z,43.83
2019-02-21T23:24:12.983Z,42.13
2019-02-21T23:29:18.434Z,40.47
2019-02-21T23:34:36.273Z,41.50
2019-02-21T23:39:41.729Z,44.63
2019-02-21T23:44:47.294Z,42.20
2019-02-21T23:49:52.866Z,38.47
2019-02-21T23:54:58.647Z,40.33
